Terminal Aerodrome Forecast
Issued by NWS Wilmington, OH

Current Version | Previous Version | Graphics & Text | Print | Product List | Glossary On
Versions: 1 2 3 4 5 6 7 8 9 10 11 12 13 14 15 16 17 18 19 20 21 22 23 24 25 26 27 28 29 30 31 32
000
FTUS41 KILN 291723
TAFCVG
TAF
KCVG 291723Z 2918/3024 06005KT P6SM SCT040
     FM291900 06006KT P6SM VCTS BKN040CB
     FM300000 06004KT P6SM SCT080
     FM301500 08005KT P6SM FEW040 SCT250=

USA.gov is the U.S. government's official web portal to all federal, state and local government web resources and services.